Map

Track Data

SID SEASON NUMBER BASIN SUBBASIN NAME ISO_TIME NATURE LAT LON WMO_WIND WMO_PRES WMO_AGENCY TRACK_TYPE DIST2LAND LANDFALL IFLAG USA_AGENCY USA_ATCF_ID USA_LAT USA_LON USA_RECORD USA_STATUS USA_WIND USA_PRES USA_SSHS USA_R34_NE USA_R34_SE USA_R34_SW USA_R34_NW USA_R50_NE USA_R50_SE USA_R50_SW USA_R50_NW USA_R64_NE USA_R64_SE USA_R64_SW USA_R64_NW USA_POCI USA_ROCI USA_RMW USA_EYE TOKYO_LAT TOKYO_LON TOKYO_GRADE TOKYO_WIND TOKYO_PRES TOKYO_R50_DIR TOKYO_R50_LONG TOKYO_R50_SHORT TOKYO_R30_DIR TOKYO_R30_LONG TOKYO_R30_SHORT TOKYO_LAND CMA_LAT CMA_LON CMA_CAT CMA_WIND CMA_PRES HKO_LAT HKO_LON HKO_CAT HKO_WIND HKO_PRES NEWDELHI_LAT NEWDELHI_LON NEWDELHI_GRADE NEWDELHI_WIND NEWDELHI_PRES NEWDELHI_CI NEWDELHI_DP NEWDELHI_POCI REUNION_LAT REUNION_LON REUNION_TYPE REUNION_WIND REUNION_PRES REUNION_TNUM REUNION_CI REUNION_RMW REUNION_R34_NE REUNION_R34_SE REUNION_R34_SW REUNION_R34_NW REUNION_R50_NE REUNION_R50_SE REUNION_R50_SW REUNION_R50_NW REUNION_R64_NE REUNION_R64_SE REUNION_R64_SW REUNION_R64_NW BOM_LAT BOM_LON BOM_TYPE BOM_WIND BOM_PRES BOM_TNUM BOM_CI BOM_RMW BOM_R34_NE BOM_R34_SE BOM_R34_SW BOM_R34_NW BOM_R50_NE BOM_R50_SE BOM_R50_SW BOM_R50_NW BOM_R64_NE BOM_R64_SE BOM_R64_SW BOM_R64_NW BOM_ROCI BOM_POCI BOM_EYE BOM_POS_METHOD BOM_PRES_METHOD NADI_LAT NADI_LON NADI_CAT NADI_WIND NADI_PRES WELLINGTON_LAT WELLINGTON_LON WELLINGTON_WIND WELLINGTON_PRES DS824_LAT DS824_LON DS824_STAGE DS824_WIND DS824_PRES TD9636_LAT TD9636_LON TD9636_STAGE TD9636_WIND TD9636_PRES TD9635_LAT TD9635_LON TD9635_WIND TD9635_PRES TD9635_ROCI NEUMANN_LAT NEUMANN_LON NEUMANN_CLASS NEUMANN_WIND NEUMANN_PRES MLC_LAT MLC_LON MLC_CLASS MLC_WIND MLC_PRES USA_GUST BOM_GUST BOM_GUST_PER REUNION_GUST REUNION_GUST_PER USA_SEAHGT USA_SEARAD_NE USA_SEARAD_SE USA_SEARAD_SW USA_SEARAD_NW STORM_SPEED STORM_DIR
1950004S11059 1950 1 SI MM NOT_NAMED 1950-01-04 06:00:00 NR -11.1000 59.1000 reunion main 1018 1011 _____O________ -1 -11.1000 59.1000 99 9.90000 3 250
1950004S11059 1950 1 SI MM NOT_NAMED 1950-01-04 09:00:00 NR -11.1527 58.9572 main 1005 987 _____P________ -1 -11.1527 58.9572 99 3 249
1950004S11059 1950 1 SI MM NOT_NAMED 1950-01-04 12:00:00 NR -11.2062 58.8124 main 987 974 _____P________ -1 -11.2062 58.8124 99 3 249
1950004S11059 1950 1 SI MM NOT_NAMED 1950-01-04 15:00:00 NR -11.2617 58.6640 main 974 953 _____P________ -1 -11.2617 58.6640 99 3 249
1950004S11059 1950 1 SI MM NOT_NAMED 1950-01-04 18:00:00 NR -11.3199 58.5099 main 953 939 _____P________ -1 -11.3199 58.5099 99 3 249
1950004S11059 1950 1 SI MM NOT_NAMED 1950-01-04 21:00:00 NR -11.3819 58.3483 main 929 918 _____P________ -1 -11.3819 58.3483 99 4 249
1950004S11059 1950 1 SI MM NOT_NAMED 1950-01-05 00:00:00 NR -11.4486 58.1774 main 918 894 _____P________ -1 -11.4486 58.1774 99 4 248
1950004S11059 1950 1 SI MM NOT_NAMED 1950-01-05 03:00:00 NR -11.5210 57.9952 main 894 879 _____P________ -1 -11.5210 57.9952 99 4 292
1950004S11059 1950 1 SI MM NOT_NAMED 1950-01-05 06:00:00 TS -11.3000 57.8000 reunion main 879 858 O____O___OO___ jtwc_sh SH031950 -10.9000 57.8000 -1 -11.6000 57.8000 99 9.90000 -10.9000 57.8000 TC 25 -10.9000 57.8000 7 5 300
1950004S11059 1950 1 SI MM NOT_NAMED 1950-01-05 09:00:00 TS -11.2752 57.5654 main 858 827 P____P___PP___ SH031950 -10.9900 57.5525 -1 -11.6862 57.5907 99 -10.9900 57.5525 TC 25 -11.0236 57.5408 7 5 268
1950004S11059 1950 1 SI MM NOT_NAMED 1950-01-05 12:00:00 TS -11.3198 57.3181 main 827 803 O____P___OP___ jtwc_sh SH031950 -11.1000 57.3000 -1 -11.7786 57.3698 99 -11.1000 57.3000 TC 25 -11.1477 57.2852 7 5 255
1950004S11059 1950 1 SI MM NOT_NAMED 1950-01-05 15:00:00 TS -11.4085 57.0657 main 803 768 P____P___PP___ SH031950 -11.2425 57.0425 -1 -11.8763 57.1410 99 -11.2425 57.0425 TC 30 -11.2729 57.0370 7 5 245
1950004S11059 1950 1 SI MM NOT_NAMED 1950-01-05 18:00:00 TS -11.5445 56.8269 main 768 741 O____P___OO___ jtwc_sh SH031950 -11.4000 56.8000 -1 -11.9778 56.9077 99 -11.4000 56.8000 TC 35 -11.4000 56.8000 2 5 239
1950004S11059 1950 1 SI MM NOT_NAMED 1950-01-05 21:00:00 TS -11.6815 56.6090 main 741 717 P____P___PP___ SH031950 -11.5575 56.5925 -1 -12.0821 56.6734 99 -11.5575 56.5925 TC 35 -11.5290 56.5775 2 5 237
1950004S11059 1950 1 SI MM NOT_NAMED 1950-01-06 00:00:00 TS -11.8114 56.4029 main 717 693 O____P___OP___ jtwc_sh SH031950 -11.7000 56.4000 -1 -12.1880 56.4417 99 -11.7000 56.4000 TC 35 -11.6574 56.3700 2 5 239
1950004S11059 1950 1 SI MM NOT_NAMED 1950-01-06 03:00:00 TS -11.9229 56.1946 main 693 669 P____P___PP___ SH031950 -11.8075 56.1925 -1 -12.2944 56.2160 99 -11.8075 56.1925 TC 35 -11.7821 56.1775 2 4 241
1950004S11059 1950 1 SI MM NOT_NAMED 1950-01-06 06:00:00 TS -12.0250 56.0000 reunion main 669 646 O____O___OO___ jtwc_sh SH031950 -11.9000 56.0000 -1 -12.4000 56.0000 99 9.90000 -11.9000 56.0000 TC 35 -11.9000 56.0000 2 4 240
1950004S11059 1950 1 SI MM NOT_NAMED 1950-01-06 09:00:00 TS -12.1277 55.8278 main 646 632 P____P___PP___ SH031950 -12.0000 55.8425 -1 -12.5037 55.7949 99 -12.0000 55.8425 TC 35 -12.0071 55.8315 2 4 238
1950004S11059 1950 1 SI MM NOT_NAMED 1950-01-06 12:00:00 TS -12.2288 55.6686 main 632 608 O____P___OP___ jtwc_sh SH031950 -12.1000 55.7000 -1 -12.6080 55.5968 99 -12.1000 55.7000 TC 35 -12.1074 55.6774 2 4 237
1950004S11059 1950 1 SI MM NOT_NAMED 1950-01-06 15:00:00 TS -12.3290 55.5066 main 608 595 P____P___PP___ SH031950 -12.2000 55.5425 -1 -12.7119 55.4066 99 -12.2000 55.5425 TC 35 -12.2040 55.5346 2 4 237
1950004S11059 1950 1 SI MM NOT_NAMED 1950-01-06 18:00:00 TS -12.4287 55.3563 main 595 571 O____P___OO___ jtwc_sh SH031950 -12.3000 55.4000 -1 -12.8148 55.2250 99 -12.3000 55.4000 TC 35 -12.3000 55.4000 2 3 233
1950004S11059 1950 1 SI MM NOT_NAMED 1950-01-06 21:00:00 TS -12.5289 55.2321 main 571 558 P____P___PP___ SH031950 -12.4000 55.3000 -1 -12.9159 55.0527 99 -12.4000 55.3000 TC 35 -12.3999 55.2759 2 3 230
1950004S11059 1950 1 SI MM NOT_NAMED 1950-01-07 00:00:00 TS -12.6286 55.1120 main 558 544 O____P___OP___ jtwc_sh SH031950 -12.5000 55.2000 -1 -13.0143 54.8906 99 -12.5000 55.2000 TC 35 -12.4999 55.1574 2 3 232
1950004S11059 1950 1 SI MM NOT_NAMED 1950-01-07 03:00:00 TS -12.7273 54.9724 main 544 521 P____P___PP___ SH031950 -12.6000 55.0575 -1 -13.1093 54.7395 99 -12.6000 55.0575 TC 35 -12.5999 55.0352 2 3 235
1950004S11059 1950 1 SI MM NOT_NAMED 1950-01-07 06:00:00 TS -12.8250 54.8250 reunion main 521 508 O____O___OO___ jtwc_sh SH031950 -12.7000 54.9000 -1 -13.2000 54.6000 99 9.90000 -12.7000 54.9000 TC 35 -12.7000 54.9000 2 3 236
1950004S11059 1950 1 SI MM NOT_NAMED 1950-01-07 09:00:00 TS -12.9191 54.6820 main 508 484 P____P___PP___ SH031950 -12.8000 54.7575 -1 -13.2764 54.4776 99 -12.8000 54.7575 TC 35 -12.8000 54.7353 2 3 237
1950004S11059 1950 1 SI MM NOT_NAMED 1950-01-07 12:00:00 TS -13.0120 54.5315 main 484 471 O____P___OP___ jtwc_sh SH031950 -12.9000 54.6000 -1 -13.3478 54.3686 99 -12.9000 54.6000 TC 35 -12.9000 54.5575 2 4 239
1950004S11059 1950 1 SI MM NOT_NAMED 1950-01-07 15:00:00 TS -13.1041 54.3614 main 471 448 P____P___PP___ SH031950 -13.0000 54.4000 -1 -13.4164 54.2695 99 -13.0000 54.4000 TC 35 -13.0000 54.3759 2 4 241
1950004S11059 1950 1 SI MM NOT_NAMED 1950-01-07 18:00:00 TS -13.1961 54.1942 main 448 436 O____P___OO___ jtwc_sh SH031950 -13.1000 54.2000 -1 -13.4845 54.1769 99 -13.1000 54.2000 TC 35 -13.1000 54.2000 2 4 239
1950004S11059 1950 1 SI MM NOT_NAMED 1950-01-07 21:00:00 TS -13.2866 54.0537 main 436 413 P____P___PP___ SH031950 -13.2000 54.0425 -1 -13.5547 54.0871 99 -13.2000 54.0425 TC 35 -13.1918 54.0427 2 3 235
1950004S11059 1950 1 SI MM NOT_NAMED 1950-01-08 00:00:00 TS -13.3785 53.9223 main 413 401 O____P___OP___ jtwc_sh SH031950 -13.3000 53.9000 -1 -13.6291 53.9967 99 -13.3000 53.9000 TC 35 -13.2849 53.8924 2 3 235
1950004S11059 1950 1 SI MM NOT_NAMED 1950-01-08 03:00:00 TS -13.4702 53.7870 main 401 388 P____P___PP___ SH031950 -13.3925 53.7500 -1 -13.7101 53.9022 99 -13.3925 53.7500 TC 35 -13.3856 53.7458 2 3 234
1950004S11059 1950 1 SI MM NOT_NAMED 1950-01-08 06:00:00 TS -13.5750 53.6500 reunion main 388 364 O____O___OO___ jtwc_sh SH031950 -13.5000 53.6000 -1 -13.8000 53.8000 99 9.90000 -13.5000 53.6000 TC 35 -13.5000 53.6000 2 4 229
1950004S11059 1950 1 SI MM NOT_NAMED 1950-01-08 09:00:00 TS -13.7073 53.5037 main 364 349 P____P___PP___ SH031950 -13.6425 53.4500 -1 -13.9046 53.6689 99 -13.6425 53.4500 TC 35 -13.6397 53.4460 2 4 226
1950004S11059 1950 1 SI MM NOT_NAMED 1950-01-08 12:00:00 TS -13.8525 53.3558 main 344 320 O____P___OP___ jtwc_sh SH031950 -13.8000 53.3000 -1 -14.0173 53.5305 99 -13.8000 53.3000 TC 35 -13.7925 53.2925 2 4 225
1950004S11059 1950 1 SI MM NOT_NAMED 1950-01-08 15:00:00 TS -14.0003 53.2076 main 320 305 P____P___PP___ SH031950 -13.9575 53.1500 -1 -14.1371 53.3875 99 -13.9575 53.1500 TC 35 -13.9491 53.1428 2 4 225
1950004S11059 1950 1 SI MM NOT_NAMED 1950-01-08 18:00:00 TS -14.1407 53.0607 main 305 281 O____P___OO___ jtwc_sh SH031950 -14.1000 53.0000 -1 -14.2627 53.2427 99 -14.1000 53.0000 TC 35 -14.1000 53.0000 2 4 229
1950004S11059 1950 1 SI MM NOT_NAMED 1950-01-08 21:00:00 TS -14.2553 52.9119 main 277 263 P____P___PP___ SH031950 -14.2000 52.8425 -1 -14.3930 53.0988 99 -14.2000 52.8425 TC 35 -14.2281 52.8637 2 4 231
1950004S11059 1950 1 SI MM NOT_NAMED 1950-01-09 00:00:00 TS -14.3692 52.7734 main 263 249 O____P___OP___ jtwc_sh SH031950 -14.3000 52.7000 -1 -14.5267 52.9586 99 -14.3000 52.7000 TC 35 -14.3500 52.7349 2 4 225
1950004S11059 1950 1 SI MM NOT_NAMED 1950-01-09 03:00:00 TS -14.5049 52.6558 main 249 235 P____P___PP___ SH031950 -14.4425 52.5925 -1 -14.6628 52.8247 99 -14.4425 52.5925 TC 35 -14.4719 52.6137 2 4 217
1950004S11059 1950 1 SI MM NOT_NAMED 1950-01-09 06:00:00 TS -14.6500 52.5500 reunion main 235 209 O____O___OO___ jtwc_sh SH031950 -14.6000 52.5000 -1 -14.8000 52.7000 99 9.90000 -14.6000 52.5000 TC 35 -14.6000 52.5000 2 4 216
1950004S11059 1950 1 SI MM NOT_NAMED 1950-01-09 09:00:00 TS -14.7877 52.4404 main 209 196 P____P___PP___ SH031950 -14.7500 52.4000 -1 -14.9080 52.5729 99 -14.7500 52.4000 TC 35 -14.7428 52.3887 2 3 217
1950004S11059 1950 1 SI MM NOT_NAMED 1950-01-09 12:00:00 TS -14.9269 52.3342 main 196 182 O____P___OP___ jtwc_sh SH031950 -14.9000 52.3000 -1 -15.0150 52.4517 99 -14.9000 52.3000 TC 35 -14.8925 52.2850 2 3 216
1950004S11059 1950 1 SI MM NOT_NAMED 1950-01-09 15:00:00 TS -15.0679 52.2320 main 182 171 P____P___PP___ SH031950 -15.0500 52.2000 -1 -15.1258 52.3392 99 -15.0500 52.2000 TC 35 -15.0459 52.1887 2 3 214
1950004S11059 1950 1 SI MM NOT_NAMED 1950-01-09 18:00:00 TS -15.2113 52.1345 main 171 160 O____P___OO___ jtwc_sh SH031950 -15.2000 52.1000 -1 -15.2450 52.2379 99 -15.2000 52.1000 TC 35 -15.2000 52.1000 2 3 214
1950004S11059 1950 1 SI MM NOT_NAMED 1950-01-09 21:00:00 TS -15.3507 52.0343 main 160 160 P____P___PP___ SH031950 -15.3500 51.9925 -1 -15.3774 52.1507 99 -15.3500 51.9925 TC 35 -15.3256 52.0016 2 3 213
1950004S11059 1950 1 SI MM NOT_NAMED 1950-01-10 00:00:00 TS -15.4956 51.9482 main 150 150 O____P___OP___ jtwc_sh SH031950 -15.5000 51.9000 -1 -15.5275 52.0802 99 -15.5000 51.9000 TC 35 -15.4550 51.9126 2 3 206
1950004S11059 1950 1 SI MM NOT_NAMED 1950-01-10 03:00:00 TS -15.6443 51.8853 main 151 151 P____P___PP___ SH031950 -15.6350 51.8350 -1 -15.7002 52.0290 99 -15.6350 51.8350 TC 35 -15.6069 51.8423 2 3 196
1950004S11059 1950 1 SI MM NOT_NAMED 1950-01-10 06:00:00 TS -15.8250 51.8500 reunion main 156 146 O____O___OO___ jtwc_sh SH031950 -15.8000 51.8000 -1 -15.9000 52.0000 99 9.90000 -15.8000 51.8000 TC 35 -15.8000 51.8000 2 4 188
1950004S11059 1950 1 SI MM NOT_NAMED 1950-01-10 09:00:00 TS -16.0644 51.8325 main 159 159 P____P___PP___ SH031950 -16.0200 51.7850 -1 -16.1528 51.9760 99 -16.0200 51.7850 TC 35 -16.0650 51.7841 2 5 182
1950004S11059 1950 1 SI MM NOT_NAMED 1950-01-10 12:00:00 TS -16.3512 51.8425 main 173 173 O____P___OP___ jtwc_sh SH031950 -16.3000 51.8000 -1 -16.4346 51.9724 99 -16.3000 51.8000 TC 35 -16.3700 51.7975 2 6 176
1950004S11059 1950 1 SI MM NOT_NAMED 1950-01-10 15:00:00 TS -16.6819 51.8742 main 197 197 P____P___PP___ SH031950 -16.6500 51.8350 -1 -16.7378 51.9896 99 -16.6500 51.8350 TC 35 -16.6900 51.8372 2 7 173
1950004S11059 1950 1 SI MM NOT_NAMED 1950-01-10 18:00:00 TS -17.0136 51.9320 main 213 213 O____P___OO___ jtwc_sh SH031950 -17.0000 51.9000 -1 -17.0545 52.0279 99 -17.0000 51.9000 TC 35 -17.0000 51.9000 2 6 168
1950004S11059 1950 1 SI MM NOT_NAMED 1950-01-10 21:00:00 TS -17.2918 52.0098 main 240 240 P____P___PP___ SH031950 -17.2650 51.9925 -1 -17.3768 52.0877 99 -17.2650 51.9925 TC 35 -17.2603 51.9664 2 6 162
1950004S11059 1950 1 SI MM NOT_NAMED 1950-01-11 00:00:00 TS -17.5511 52.1062 main 260 260 O____P___OP___ jtwc_sh SH031950 -17.5000 52.1000 -1 -17.6971 52.1695 99 -17.5000 52.1000 TC 35 -17.5074 52.0552 2 6 160
1950004S11059 1950 1 SI MM NOT_NAMED 1950-01-11 03:00:00 TS -17.8146 52.2062 main 278 278 P____P___PP___ SH031950 -17.7500 52.1926 -1 -18.0074 52.2734 99 -17.7500 52.1926 TC 35 -17.7509 52.1664 2 6 158
1950004S11059 1950 1 SI MM NOT_NAMED 1950-01-11 06:00:00 TS -18.0750 52.3250 reunion main 299 299 O____O___OO___ jtwc_sh SH031950 -18.0000 52.3000 -1 -18.3000 52.4000 99 9.90000 -18.0000 52.3000 TC 35 -18.0000 52.3000 2 6 154
1950004S11059 1950 1 SI MM NOT_NAMED 1950-01-11 09:00:00 TS -18.3246 52.4645 main 324 324 P____P___PP___ SH031950 -18.2425 52.4351 -1 -18.5375 52.5386 99 -18.2425 52.4351 TC 35 -18.2759 52.4493 2 6 150
1950004S11059 1950 1 SI MM NOT_NAMED 1950-01-11 12:00:00 TS -18.5792 52.6305 main 340 340 O____P___OP___ jtwc_sh SH031950 -18.5000 52.6000 -1 -18.7592 52.7019 99 -18.5000 52.6000 TC 35 -18.5575 52.6200 2 6 148
1950004S11059 1950 1 SI MM NOT_NAMED 1950-01-11 15:00:00 TS -18.8549 52.8192 main 351 320 P____P___PP___ SH031950 -18.8075 52.7925 -1 -18.9695 52.8864 99 -18.8075 52.7925 TC 35 -18.8353 52.8056 2 7 145
1950004S11059 1950 1 SI MM NOT_NAMED 1950-01-11 18:00:00 TS -19.1182 53.0221 main 320 289 O____P___OO___ jtwc_sh SH031950 -19.1000 53.0000 -1 -19.1727 53.0883 99 -19.1000 53.0000 TC 35 -19.1000 53.0000 2 6 141
1950004S11059 1950 1 SI MM NOT_NAMED 1950-01-11 21:00:00 TS -19.3277 53.2204 main 289 259 P____P___PP___ SH031950 -19.3075 53.2001 -1 -19.3730 53.3043 99 -19.3075 53.2001 TC 35 -19.3230 53.1771 2 6 137
1950004S11059 1950 1 SI MM NOT_NAMED 1950-01-12 00:00:00 TS -19.5274 53.4235 main 259 228 O____P___OP___ jtwc_sh SH031950 -19.5000 53.4000 -1 -19.5747 53.5305 99 -19.5000 53.4000 TC 35 -19.5347 53.3633 2 6 138
1950004S11059 1950 1 SI MM NOT_NAMED 1950-01-12 03:00:00 TS -19.7516 53.6255 main 221 190 P____P___PP___ SH031950 -19.7349 53.5851 -1 -19.7823 53.7636 99 -19.7349 53.5851 TC 35 -19.7541 53.5679 2 6 140
1950004S11059 1950 1 SI MM NOT_NAMED 1950-01-12 06:00:00 TS -20.0000 53.8500 reunion main 182 145 O____O___OO___ jtwc_sh SH031950 -20.0000 53.8000 -1 -20.0000 54.0000 99 9.90000 -20.0000 53.8000 TC 35 -20.0000 53.8000 2 7 139
1950004S11059 1950 1 SI MM NOT_NAMED 1950-01-12 09:00:00 TS -20.2708 54.1083 main 145 106 P____P___PP___ SH031950 -20.2850 54.0850 -1 -20.2048 54.1883 99 -20.2850 54.0850 TC 35 -20.3085 54.0750 2 8 138
1950004S11059 1950 1 SI MM NOT_NAMED 1950-01-12 12:00:00 TS -20.5640 54.3888 main 100 56 O____P___OP___ jtwc_sh SH031950 -20.6000 54.4000 -1 -20.4132 54.3783 99 -20.6000 54.4000 TC 35 -20.6427 54.3770 2 8 139
1950004S11059 1950 1 SI MM NOT_NAMED 1950-01-12 15:00:00 TS -20.8818 54.6667 main 56 31 P____P___PP___ SH031950 -20.9574 54.7000 -1 -20.6319 54.5760 99 -20.9574 54.7000 TC 35 -20.9804 54.6906 2 8 140
1950004S11059 1950 1 SI MM NOT_NAMED 1950-01-12 18:00:00 TS -21.1917 54.9469 main 33 15 O____P___OO___ jtwc_sh SH031950 -21.3000 55.0000 -1 -20.8670 54.7877 99 -21.3000 55.0000 TC 35 -21.3000 55.0000 2 8 138
1950004S11059 1950 1 SI MM NOT_NAMED 1950-01-12 21:00:00 TS -21.4600 55.2318 main 24 22 P____P___PP___ SH031950 -21.5650 55.3077 -1 -21.1250 55.0195 99 -21.5650 55.3077 TC 35 -21.5850 55.2925 2 7 134
1950004S11059 1950 1 SI MM NOT_NAMED 1950-01-13 00:00:00 TS -21.6900 55.4939 main 35 35 O____P___OP___ jtwc_sh SH031950 -21.8000 55.6000 -1 -21.4123 55.2778 99 -21.8000 55.6000 TC 35 -21.8401 55.5699 2 7 135
1950004S11059 1950 1 SI MM NOT_NAMED 1950-01-13 03:00:00 TS -21.9271 55.7390 main 56 56 P____P___PP___ SH031950 -22.0450 55.8598 -1 -21.7352 55.5690 99 -22.0450 55.8598 TC 35 -22.0752 55.8372 2 7 137
1950004S11059 1950 1 SI MM NOT_NAMED 1950-01-13 06:00:00 TS -22.1857 55.9857 reunion main 98 98 O____O___OO___ jtwc_sh SH031950 -22.3000 56.1000 -1 -22.1000 55.9000 99 9.90000 -22.3000 56.1000 TC 35 -22.3000 56.1000 2 8 140
1950004S11059 1950 1 SI MM NOT_NAMED 1950-01-13 09:00:00 NR -22.5108 56.2756 main 142 142 _____P________ SH031950 -1 -22.5108 56.2756 99 TC 2 10 140
1950004S11059 1950 1 SI MM NOT_NAMED 1950-01-13 12:00:00 NR -22.9634 56.6931 main 211 211 _____P________ -1 -22.9634 56.6931 99 2 12 140
1950004S11059 1950 1 SI MM NOT_NAMED 1950-01-13 15:00:00 NR -23.4516 57.1478 main 279 279 _____P________ -1 -23.4516 57.1478 99 2 13 139
1950004S11059 1950 1 SI MM NOT_NAMED 1950-01-13 18:00:00 NR -23.9687 57.6346 main 353 353 _____P________ -1 -23.9687 57.6346 99 14 139
1950004S11059 1950 1 SI MM NOT_NAMED 1950-01-13 21:00:00 NR -24.5086 58.1486 main 428 428 _____P________ -1 -24.5086 58.1486 99 15 139
1950004S11059 1950 1 SI MM NOT_NAMED 1950-01-14 00:00:00 NR -25.0647 58.6845 main 517 517 _____P________ -1 -25.0647 58.6845 99 15 139
1950004S11059 1950 1 SI MM NOT_NAMED 1950-01-14 03:00:00 NR -25.6306 59.2368 main 590 590 _____P________ -1 -25.6306 59.2368 99 15 138
1950004S11059 1950 1 SI MM NOT_NAMED 1950-01-14 06:00:00 NR -26.2000 59.8000 reunion main 672 _____O________ -1 -26.2000 59.8000 99 9.90000 15 138

About IBTrACS Database

This database is a web-friendly format of International Best Track Archive for Climate Stewardship (IBTrACS), a global best track data archive curated by NOAA dating back to 1842.

Updated: 2021-12-08